sensor_id;sensor_type;location;lat;lon;timestamp;P1;durP1;ratioP1;P2;durP2;ratioP2
26391;SDS011;14572;43.120;1.178;2024-03-29T00:01:52;5.95;;;1.90;;
26391;SDS011;14572;43.120;1.178;2024-03-29T00:04:21;6.90;;;2.20;;
26391;SDS011;14572;43.120;1.178;2024-03-29T00:06:47;3.83;;;1.83;;
26391;SDS011;14572;43.120;1.178;2024-03-29T00:09:14;6.43;;;1.90;;
26391;SDS011;14572;43.120;1.178;2024-03-29T00:11:40;4.40;;;1.65;;
26391;SDS011;14572;43.120;1.178;2024-03-29T00:14:06;1.75;;;0.98;;
26391;SDS011;14572;43.120;1.178;2024-03-29T00:16:32;4.15;;;1.20;;
26391;SDS011;14572;43.120;1.178;2024-03-29T00:18:58;4.28;;;1.60;;
26391;SDS011;14572;43.120;1.178;2024-03-29T00:21:25;7.03;;;1.75;;
26391;SDS011;14572;43.120;1.178;2024-03-29T00:23:51;4.93;;;1.85;;
26391;SDS011;14572;43.120;1.178;2024-03-29T00:26:17;5.28;;;1.85;;
26391;SDS011;14572;43.120;1.178;2024-03-29T00:28:44;5.18;;;1.52;;
26391;SDS011;14572;43.120;1.178;2024-03-29T00:31:10;2.97;;;1.40;;
26391;SDS011;14572;43.120;1.178;2024-03-29T00:33:36;3.95;;;1.70;;
26391;SDS011;14572;43.120;1.178;2024-03-29T00:36:02;3.53;;;1.48;;
26391;SDS011;14572;43.120;1.178;2024-03-29T00:38:30;5.28;;;1.90;;
26391;SDS011;14572;43.120;1.178;2024-03-29T00:40:56;1.65;;;0.80;;
26391;SDS011;14572;43.120;1.178;2024-03-29T00:43:23;2.20;;;0.63;;
26391;SDS011;14572;43.120;1.178;2024-03-29T00:45:48;3.03;;;0.80;;
26391;SDS011;14572;43.120;1.178;2024-03-29T00:48:15;3.28;;;1.17;;
26391;SDS011;14572;43.120;1.178;2024-03-29T00:50:41;0.40;;;0.20;;
26391;SDS011;14572;43.120;1.178;2024-03-29T00:53:07;0.52;;;0.28;;
26391;SDS011;14572;43.120;1.178;2024-03-29T00:55:34;0.47;;;0.20;;
26391;SDS011;14572;43.120;1.178;2024-03-29T00:58:00;1.08;;;0.47;;
26391;SDS011;14572;43.120;1.178;2024-03-29T01:00:26;0.82;;;0.10;;
26391;SDS011;14572;43.120;1.178;2024-03-29T01:02:52;0.30;;;0.10;;
26391;SDS011;14572;43.120;1.178;2024-03-29T01:05:18;0.90;;;0.10;;
26391;SDS011;14572;43.120;1.178;2024-03-29T01:07:45;0.10;;;0.10;;
26391;SDS011;14572;43.120;1.178;2024-03-29T01:10:11;0.10;;;0.10;;
26391;SDS011;14572;43.120;1.178;2024-03-29T01:12:38;0.03;;;0.03;;
26391;SDS011;14572;43.120;1.178;2024-03-29T01:15:05;0.10;;;0.10;;
26391;SDS011;14572;43.120;1.178;2024-03-29T01:17:31;3.28;;;2.10;;
26391;SDS011;14572;43.120;1.178;2024-03-29T01:19:57;1.98;;;1.88;;
26391;SDS011;14572;43.120;1.178;2024-03-29T01:22:23;2.10;;;2.00;;
26391;SDS011;14572;43.120;1.178;2024-03-29T01:24:49;2.00;;;1.90;;
26391;SDS011;14572;43.120;1.178;2024-03-29T01:27:15;2.20;;;2.10;;
26391;SDS011;14572;43.120;1.178;2024-03-29T01:29:43;2.30;;;2.20;;
26391;SDS011;14572;43.120;1.178;2024-03-29T01:32:09;3.10;;;2.10;;
26391;SDS011;14572;43.120;1.178;2024-03-29T01:34:36;2.15;;;2.00;;
26391;SDS011;14572;43.120;1.178;2024-03-29T01:37:02;2.30;;;2.20;;
26391;SDS011;14572;43.120;1.178;2024-03-29T01:39:28;3.60;;;2.38;;
26391;SDS011;14572;43.120;1.178;2024-03-29T01:41:54;7.18;;;3.10;;
26391;SDS011;14572;43.120;1.178;2024-03-29T01:44:20;11.88;;;7.10;;
26391;SDS011;14572;43.120;1.178;2024-03-29T01:46:48;10.25;;;5.53;;
26391;SDS011;14572;43.120;1.178;2024-03-29T01:49:16;7.50;;;5.10;;
26391;SDS011;14572;43.120;1.178;2024-03-29T01:51:43;6.88;;;4.05;;
26391;SDS011;14572;43.120;1.178;2024-03-29T01:54:10;7.30;;;4.00;;
26391;SDS011;14572;43.120;1.178;2024-03-29T01:56:38;10.10;;;4.75;;
26391;SDS011;14572;43.120;1.178;2024-03-29T01:59:08;7.95;;;5.50;;
26391;SDS011;14572;43.120;1.178;2024-03-29T02:01:40;10.43;;;5.18;;
26391;SDS011;14572;43.120;1.178;2024-03-29T02:04:09;6.65;;;4.25;;
26391;SDS011;14572;43.120;1.178;2024-03-29T02:06:36;4.68;;;3.75;;
26391;SDS011;14572;43.120;1.178;2024-03-29T02:09:04;7.78;;;4.35;;
26391;SDS011;14572;43.120;1.178;2024-03-29T02:11:31;5.22;;;3.58;;
26391;SDS011;14572;43.120;1.178;2024-03-29T02:13:58;7.68;;;3.40;;
26391;SDS011;14572;43.120;1.178;2024-03-29T02:16:26;4.80;;;3.15;;
26391;SDS011;14572;43.120;1.178;2024-03-29T02:18:53;4.88;;;2.95;;
26391;SDS011;14572;43.120;1.178;2024-03-29T02:21:21;4.72;;;2.70;;
26391;SDS011;14572;43.120;1.178;2024-03-29T02:23:54;3.33;;;2.65;;
26391;SDS011;14572;43.120;1.178;2024-03-29T02:26:24;5.43;;;2.60;;
26391;SDS011;14572;43.120;1.178;2024-03-29T02:28:56;3.33;;;2.13;;
26391;SDS011;14572;43.120;1.178;2024-03-29T02:31:23;3.45;;;2.30;;
26391;SDS011;14572;43.120;1.178;2024-03-29T02:33:51;5.63;;;2.17;;
26391;SDS011;14572;43.120;1.178;2024-03-29T02:36:18;3.97;;;2.00;;
26391;SDS011;14572;43.120;1.178;2024-03-29T02:38:45;2.33;;;2.13;;
26391;SDS011;14572;43.120;1.178;2024-03-29T02:41:13;2.10;;;1.90;;
26391;SDS011;14572;43.120;1.178;2024-03-29T02:43:40;3.13;;;1.70;;
26391;SDS011;14572;43.120;1.178;2024-03-29T02:46:07;7.40;;;2.10;;
26391;SDS011;14572;43.120;1.178;2024-03-29T02:48:35;6.57;;;1.77;;
26391;SDS011;14572;43.120;1.178;2024-03-29T02:51:02;2.85;;;1.70;;
26391;SDS011;14572;43.120;1.178;2024-03-29T02:53:28;5.53;;;1.70;;
26391;SDS011;14572;43.120;1.178;2024-03-29T02:55:55;1.92;;;1.40;;
26391;SDS011;14572;43.120;1.178;2024-03-29T02:58:22;4.47;;;1.60;;
26391;SDS011;14572;43.120;1.178;2024-03-29T03:00:49;7.78;;;1.48;;
26391;SDS011;14572;43.120;1.178;2024-03-29T03:03:15;4.40;;;1.83;;
26391;SDS011;14572;43.120;1.178;2024-03-29T03:05:43;4.20;;;1.45;;
26391;SDS011;14572;43.120;1.178;2024-03-29T03:08:09;4.07;;;1.23;;
26391;SDS011;14572;43.120;1.178;2024-03-29T03:10:53;3.53;;;1.40;;
26391;SDS011;14572;43.120;1.178;2024-03-29T03:13:26;2.05;;;1.15;;
26391;SDS011;14572;43.120;1.178;2024-03-29T03:15:54;3.53;;;0.70;;
26391;SDS011;14572;43.120;1.178;2024-03-29T03:18:20;2.60;;;0.90;;
26391;SDS011;14572;43.120;1.178;2024-03-29T03:20:51;2.08;;;0.80;;
26391;SDS011;14572;43.120;1.178;2024-03-29T03:23:17;3.00;;;0.68;;
26391;SDS011;14572;43.120;1.178;2024-03-29T03:25:44;1.70;;;0.80;;
26391;SDS011;14572;43.120;1.178;2024-03-29T03:28:13;3.75;;;0.70;;
26391;SDS011;14572;43.120;1.178;2024-03-29T03:30:42;4.50;;;1.05;;
26391;SDS011;14572;43.120;1.178;2024-03-29T03:33:08;1.95;;;0.57;;
26391;SDS011;14572;43.120;1.178;2024-03-29T03:35:35;2.03;;;0.40;;
26391;SDS011;14572;43.120;1.178;2024-03-29T03:38:01;3.63;;;0.70;;
26391;SDS011;14572;43.120;1.178;2024-03-29T03:40:28;4.78;;;0.65;;
26391;SDS011;14572;43.120;1.178;2024-03-29T03:42:54;2.40;;;0.60;;
26391;SDS011;14572;43.120;1.178;2024-03-29T03:45:21;2.08;;;0.57;;
26391;SDS011;14572;43.120;1.178;2024-03-29T03:47:49;2.28;;;0.80;;
26391;SDS011;14572;43.120;1.178;2024-03-29T03:50:16;1.48;;;0.50;;
26391;SDS011;14572;43.120;1.178;2024-03-29T03:52:42;1.10;;;0.60;;
26391;SDS011;14572;43.120;1.178;2024-03-29T03:55:09;5.28;;;0.98;;
26391;SDS011;14572;43.120;1.178;2024-03-29T03:57:35;3.20;;;0.70;;
26391;SDS011;14572;43.120;1.178;2024-03-29T04:00:02;3.95;;;0.70;;
26391;SDS011;14572;43.120;1.178;2024-03-29T04:02:29;2.83;;;0.85;;
26391;SDS011;14572;43.120;1.178;2024-03-29T04:04:58;2.08;;;0.70;;
26391;SDS011;14572;43.120;1.178;2024-03-29T04:07:25;2.58;;;0.60;;
26391;SDS011;14572;43.120;1.178;2024-03-29T04:09:52;3.72;;;0.70;;
26391;SDS011;14572;43.120;1.178;2024-03-29T04:12:18;4.70;;;0.60;;
26391;SDS011;14572;43.120;1.178;2024-03-29T04:14:45;2.85;;;0.65;;
26391;SDS011;14572;43.120;1.178;2024-03-29T04:17:11;4.20;;;0.90;;
26391;SDS011;14572;43.120;1.178;2024-03-29T04:19:38;5.97;;;0.90;;
26391;SDS011;14572;43.120;1.178;2024-03-29T04:22:06;3.22;;;0.80;;
26391;SDS011;14572;43.120;1.178;2024-03-29T04:24:33;3.05;;;0.65;;
26391;SDS011;14572;43.120;1.178;2024-03-29T04:26:59;3.97;;;0.70;;
26391;SDS011;14572;43.120;1.178;2024-03-29T04:29:26;4.85;;;0.55;;
26391;SDS011;14572;43.120;1.178;2024-03-29T04:31:52;1.45;;;0.70;;
26391;SDS011;14572;43.120;1.178;2024-03-29T04:34:19;2.58;;;0.68;;
26391;SDS011;14572;43.120;1.178;2024-03-29T04:36:45;2.00;;;0.73;;
26391;SDS011;14572;43.120;1.178;2024-03-29T04:39:14;1.52;;;0.70;;
26391;SDS011;14572;43.120;1.178;2024-03-29T04:41:41;2.05;;;0.75;;
26391;SDS011;14572;43.120;1.178;2024-03-29T04:44:08;1.83;;;0.70;;
26391;SDS011;14572;43.120;1.178;2024-03-29T04:46:35;1.50;;;0.40;;
26391;SDS011;14572;43.120;1.178;2024-03-29T04:49:02;5.75;;;0.70;;
26391;SDS011;14572;43.120;1.178;2024-03-29T04:51:29;3.22;;;0.52;;
26391;SDS011;14572;43.120;1.178;2024-03-29T04:53:56;2.00;;;0.50;;
26391;SDS011;14572;43.120;1.178;2024-03-29T04:56:24;3.40;;;0.70;;
26391;SDS011;14572;43.120;1.178;2024-03-29T04:58:51;4.05;;;0.75;;
26391;SDS011;14572;43.120;1.178;2024-03-29T05:01:18;3.55;;;0.63;;
26391;SDS011;14572;43.120;1.178;2024-03-29T05:03:45;4.40;;;1.60;;
26391;SDS011;14572;43.120;1.178;2024-03-29T05:06:12;3.38;;;0.60;;
26391;SDS011;14572;43.120;1.178;2024-03-29T05:08:39;2.05;;;0.55;;
26391;SDS011;14572;43.120;1.178;2024-03-29T05:11:06;3.83;;;1.02;;
26391;SDS011;14572;43.120;1.178;2024-03-29T05:13:35;2.65;;;0.70;;
26391;SDS011;14572;43.120;1.178;2024-03-29T05:16:03;3.50;;;0.60;;
26391;SDS011;14572;43.120;1.178;2024-03-29T05:18:31;4.88;;;0.85;;
26391;SDS011;14572;43.120;1.178;2024-03-29T05:20:58;3.13;;;0.80;;
26391;SDS011;14572;43.120;1.178;2024-03-29T05:23:25;2.55;;;0.60;;
26391;SDS011;14572;43.120;1.178;2024-03-29T05:25:52;2.25;;;0.55;;
26391;SDS011;14572;43.120;1.178;2024-03-29T05:28:20;3.15;;;0.82;;
26391;SDS011;14572;43.120;1.178;2024-03-29T05:30:49;2.20;;;0.50;;
26391;SDS011;14572;43.120;1.178;2024-03-29T05:33:16;4.18;;;0.60;;
26391;SDS011;14572;43.120;1.178;2024-03-29T05:35:43;4.00;;;0.50;;
26391;SDS011;14572;43.120;1.178;2024-03-29T05:38:11;1.30;;;0.50;;
26391;SDS011;14572;43.120;1.178;2024-03-29T05:40:38;0.90;;;0.50;;
26391;SDS011;14572;43.120;1.178;2024-03-29T05:43:05;2.25;;;0.77;;
26391;SDS011;14572;43.120;1.178;2024-03-29T05:45:32;2.10;;;0.60;;
26391;SDS011;14572;43.120;1.178;2024-03-29T05:48:01;1.10;;;0.60;;
26391;SDS011;14572;43.120;1.178;2024-03-29T05:50:28;3.90;;;0.80;;
26391;SDS011;14572;43.120;1.178;2024-03-29T05:52:55;2.65;;;0.68;;
26391;SDS011;14572;43.120;1.178;2024-03-29T05:55:24;2.00;;;0.63;;
26391;SDS011;14572;43.120;1.178;2024-03-29T05:57:51;3.83;;;0.70;;
26391;SDS011;14572;43.120;1.178;2024-03-29T06:00:19;3.55;;;0.60;;
26391;SDS011;14572;43.120;1.178;2024-03-29T06:02:46;1.92;;;0.50;;
26391;SDS011;14572;43.120;1.178;2024-03-29T06:05:15;2.55;;;0.82;;
26391;SDS011;14572;43.120;1.178;2024-03-29T06:07:42;1.17;;;0.50;;
26391;SDS011;14572;43.120;1.178;2024-03-29T06:10:09;1.63;;;0.45;;
26391;SDS011;14572;43.120;1.178;2024-03-29T06:12:36;2.75;;;0.50;;
26391;SDS011;14572;43.120;1.178;2024-03-29T06:15:04;4.07;;;0.75;;
26391;SDS011;14572;43.120;1.178;2024-03-29T06:17:50;1.27;;;0.50;;
26391;SDS011;14572;43.120;1.178;2024-03-29T06:20:22;2.40;;;0.70;;
26391;SDS011;14572;43.120;1.178;2024-03-29T06:22:59;3.20;;;0.52;;
26391;SDS011;14572;43.120;1.178;2024-03-29T06:25:25;1.77;;;0.70;;
26391;SDS011;14572;43.120;1.178;2024-03-29T06:27:52;3.15;;;0.73;;
26391;SDS011;14572;43.120;1.178;2024-03-29T06:30:19;2.08;;;0.70;;
26391;SDS011;14572;43.120;1.178;2024-03-29T06:32:47;7.72;;;1.10;;
26391;SDS011;14572;43.120;1.178;2024-03-29T06:35:14;1.60;;;0.90;;
26391;SDS011;14572;43.120;1.178;2024-03-29T06:37:42;2.65;;;1.27;;
26391;SDS011;14572;43.120;1.178;2024-03-29T06:40:10;1.95;;;1.15;;
26391;SDS011;14572;43.120;1.178;2024-03-29T06:42:37;2.70;;;0.80;;
26391;SDS011;14572;43.120;1.178;2024-03-29T06:45:05;4.28;;;1.58;;
26391;SDS011;14572;43.120;1.178;2024-03-29T06:47:34;2.15;;;1.95;;
26391;SDS011;14572;43.120;1.178;2024-03-29T06:50:01;4.47;;;2.80;;
26391;SDS011;14572;43.120;1.178;2024-03-29T06:52:28;3.85;;;2.85;;
26391;SDS011;14572;43.120;1.178;2024-03-29T06:54:57;6.18;;;2.70;;
26391;SDS011;14572;43.120;1.178;2024-03-29T06:57:24;2.88;;;2.60;;
26391;SDS011;14572;43.120;1.178;2024-03-29T06:59:56;5.72;;;2.80;;
26391;SDS011;14572;43.120;1.178;2024-03-29T07:02:23;3.00;;;2.30;;
26391;SDS011;14572;43.120;1.178;2024-03-29T07:04:50;3.42;;;2.92;;
26391;SDS011;14572;43.120;1.178;2024-03-29T07:07:17;13.55;;;4.75;;
26391;SDS011;14572;43.120;1.178;2024-03-29T07:09:45;6.18;;;3.80;;
26391;SDS011;14572;43.120;1.178;2024-03-29T07:12:13;6.35;;;4.00;;
26391;SDS011;14572;43.120;1.178;2024-03-29T07:14:41;6.53;;;3.05;;
26391;SDS011;14572;43.120;1.178;2024-03-29T07:17:08;8.68;;;4.22;;
26391;SDS011;14572;43.120;1.178;2024-03-29T07:19:36;7.40;;;3.38;;
26391;SDS011;14572;43.120;1.178;2024-03-29T07:22:10;3.65;;;1.98;;
26391;SDS011;14572;43.120;1.178;2024-03-29T07:24:39;3.42;;;1.50;;
26391;SDS011;14572;43.120;1.178;2024-03-29T07:27:06;6.70;;;1.27;;
26391;SDS011;14572;43.120;1.178;2024-03-29T07:29:35;5.32;;;1.40;;
26391;SDS011;14572;43.120;1.178;2024-03-29T07:32:02;6.03;;;1.55;;
26391;SDS011;14572;43.120;1.178;2024-03-29T07:34:30;6.20;;;1.60;;
26391;SDS011;14572;43.120;1.178;2024-03-29T07:36:57;3.78;;;1.80;;
26391;SDS011;14572;43.120;1.178;2024-03-29T07:39:24;6.03;;;1.60;;
26391;SDS011;14572;43.120;1.178;2024-03-29T07:41:51;7.85;;;1.73;;
26391;SDS011;14572;43.120;1.178;2024-03-29T07:44:18;8.02;;;1.88;;
26391;SDS011;14572;43.120;1.178;2024-03-29T07:46:47;3.80;;;1.50;;
26391;SDS011;14572;43.120;1.178;2024-03-29T07:49:14;8.68;;;2.13;;
26391;SDS011;14572;43.120;1.178;2024-03-29T07:51:46;7.07;;;2.15;;
26391;SDS011;14572;43.120;1.178;2024-03-29T07:54:13;6.60;;;2.08;;
26391;SDS011;14572;43.120;1.178;2024-03-29T07:56:40;7.05;;;2.22;;
26391;SDS011;14572;43.120;1.178;2024-03-29T07:59:07;4.22;;;1.77;;
26391;SDS011;14572;43.120;1.178;2024-03-29T08:01:34;5.28;;;2.00;;
26391;SDS011;14572;43.120;1.178;2024-03-29T08:04:03;4.50;;;1.92;;
26391;SDS011;14572;43.120;1.178;2024-03-29T08:06:30;7.38;;;1.77;;
26391;SDS011;14572;43.120;1.178;2024-03-29T08:08:57;4.53;;;1.55;;
26391;SDS011;14572;43.120;1.178;2024-03-29T08:11:25;6.47;;;1.98;;
26391;SDS011;14572;43.120;1.178;2024-03-29T08:13:52;5.03;;;1.58;;
26391;SDS011;14572;43.120;1.178;2024-03-29T08:16:19;4.28;;;1.70;;
26391;SDS011;14572;43.120;1.178;2024-03-29T08:18:46;3.60;;;1.50;;
26391;SDS011;14572;43.120;1.178;2024-03-29T08:21:14;5.20;;;1.30;;
26391;SDS011;14572;43.120;1.178;2024-03-29T08:23:42;6.63;;;1.42;;
26391;SDS011;14572;43.120;1.178;2024-03-29T08:26:11;4.35;;;1.40;;
26391;SDS011;14572;43.120;1.178;2024-03-29T08:28:38;5.63;;;1.92;;
26391;SDS011;14572;43.120;1.178;2024-03-29T08:31:06;5.03;;;1.40;;
26391;SDS011;14572;43.120;1.178;2024-03-29T08:33:34;6.50;;;1.20;;
26391;SDS011;14572;43.120;1.178;2024-03-29T08:36:04;4.68;;;1.42;;
26391;SDS011;14572;43.120;1.178;2024-03-29T08:38:33;3.30;;;1.40;;
26391;SDS011;14572;43.120;1.178;2024-03-29T08:41:00;4.88;;;1.50;;
26391;SDS011;14572;43.120;1.178;2024-03-29T08:43:27;4.13;;;1.50;;
26391;SDS011;14572;43.120;1.178;2024-03-29T08:45:54;1.52;;;1.23;;
26391;SDS011;14572;43.120;1.178;2024-03-29T08:48:22;8.60;;;1.35;;
26391;SDS011;14572;43.120;1.178;2024-03-29T08:50:50;3.63;;;1.15;;
26391;SDS011;14572;43.120;1.178;2024-03-29T08:53:17;6.65;;;1.63;;
26391;SDS011;14572;43.120;1.178;2024-03-29T08:55:46;5.03;;;1.70;;
26391;SDS011;14572;43.120;1.178;2024-03-29T08:58:13;5.30;;;1.70;;
26391;SDS011;14572;43.120;1.178;2024-03-29T09:00:41;5.25;;;1.55;;
26391;SDS011;14572;43.120;1.178;2024-03-29T09:03:08;3.45;;;1.30;;
26391;SDS011;14572;43.120;1.178;2024-03-29T09:05:35;5.38;;;1.60;;
26391;SDS011;14572;43.120;1.178;2024-03-29T09:08:02;5.10;;;0.80;;
26391;SDS011;14572;43.120;1.178;2024-03-29T09:10:29;2.45;;;0.65;;
26391;SDS011;14572;43.120;1.178;2024-03-29T09:12:58;4.22;;;0.80;;
26391;SDS011;14572;43.120;1.178;2024-03-29T09:15:25;4.45;;;0.73;;
26391;SDS011;14572;43.120;1.178;2024-03-29T09:17:53;5.00;;;0.88;;
26391;SDS011;14572;43.120;1.178;2024-03-29T09:20:20;3.20;;;0.90;;
26391;SDS011;14572;43.120;1.178;2024-03-29T09:22:50;4.55;;;0.88;;
26391;SDS011;14572;43.120;1.178;2024-03-29T09:25:17;3.97;;;0.75;;
26391;SDS011;14572;43.120;1.178;2024-03-29T09:27:45;3.40;;;0.80;;
26391;SDS011;14572;43.120;1.178;2024-03-29T09:30:15;4.50;;;0.95;;
26391;SDS011;14572;43.120;1.178;2024-03-29T09:32:44;4.50;;;0.88;;
26391;SDS011;14572;43.120;1.178;2024-03-29T09:35:11;3.80;;;0.70;;
26391;SDS011;14572;43.120;1.178;2024-03-29T09:37:38;4.00;;;0.95;;
26391;SDS011;14572;43.120;1.178;2024-03-29T09:40:05;3.63;;;0.90;;
26391;SDS011;14572;43.120;1.178;2024-03-29T09:42:33;3.88;;;0.60;;
26391;SDS011;14572;43.120;1.178;2024-03-29T09:45:02;3.58;;;0.80;;
26391;SDS011;14572;43.120;1.178;2024-03-29T09:47:31;4.03;;;0.95;;
26391;SDS011;14572;43.120;1.178;2024-03-29T09:49:59;3.63;;;0.93;;
26391;SDS011;14572;43.120;1.178;2024-03-29T09:52:26;6.93;;;1.25;;
26391;SDS011;14572;43.120;1.178;2024-03-29T09:54:54;7.95;;;1.42;;
26391;SDS011;14572;43.120;1.178;2024-03-29T09:57:22;5.05;;;1.00;;
26391;SDS011;14572;43.120;1.178;2024-03-29T09:59:54;14.23;;;1.80;;
26391;SDS011;14572;43.120;1.178;2024-03-29T10:02:21;10.90;;;1.80;;
26391;SDS011;14572;43.120;1.178;2024-03-29T10:25:36;13.85;;;2.67;;
26391;SDS011;14572;43.120;1.178;2024-03-29T10:28:03;19.42;;;3.20;;
26391;SDS011;14572;43.120;1.178;2024-03-29T10:30:30;15.80;;;2.83;;
26391;SDS011;14572;43.120;1.178;2024-03-29T10:32:57;12.23;;;2.45;;
26391;SDS011;14572;43.120;1.178;2024-03-29T10:35:24;15.57;;;3.03;;
26391;SDS011;14572;43.120;1.178;2024-03-29T10:37:52;13.57;;;2.80;;
26391;SDS011;14572;43.120;1.178;2024-03-29T10:40:19;16.85;;;3.05;;
26391;SDS011;14572;43.120;1.178;2024-03-29T10:42:51;18.77;;;2.60;;
26391;SDS011;14572;43.120;1.178;2024-03-29T10:45:18;11.70;;;2.47;;
26391;SDS011;14572;43.120;1.178;2024-03-29T10:47:47;20.25;;;2.80;;
26391;SDS011;14572;43.120;1.178;2024-03-29T10:50:15;19.45;;;3.65;;
26391;SDS011;14572;43.120;1.178;2024-03-29T10:52:44;16.90;;;3.22;;
26391;SDS011;14572;43.120;1.178;2024-03-29T10:55:11;17.95;;;2.72;;
26391;SDS011;14572;43.120;1.178;2024-03-29T10:57:39;14.50;;;3.30;;
26391;SDS011;14572;43.120;1.178;2024-03-29T11:00:11;13.75;;;3.22;;
26391;SDS011;14572;43.120;1.178;2024-03-29T11:02:46;21.58;;;3.88;;
26391;SDS011;14572;43.120;1.178;2024-03-29T11:05:16;11.30;;;2.85;;
26391;SDS011;14572;43.120;1.178;2024-03-29T11:07:44;13.38;;;3.28;;
26391;SDS011;14572;43.120;1.178;2024-03-29T11:10:13;20.05;;;3.72;;
26391;SDS011;14572;43.120;1.178;2024-03-29T11:12:46;17.00;;;3.03;;
26391;SDS011;14572;43.120;1.178;2024-03-29T11:15:22;16.33;;;3.25;;
26391;SDS011;14572;43.120;1.178;2024-03-29T11:17:54;21.73;;;3.55;;
26391;SDS011;14572;43.120;1.178;2024-03-29T11:20:23;19.45;;;3.65;;
26391;SDS011;14572;43.120;1.178;2024-03-29T11:22:59;19.48;;;3.25;;
26391;SDS011;14572;43.120;1.178;2024-03-29T11:25:41;17.92;;;3.10;;
26391;SDS011;14572;43.120;1.178;2024-03-29T11:28:08;19.90;;;3.05;;
26391;SDS011;14572;43.120;1.178;2024-03-29T11:30:44;19.23;;;3.20;;
26391;SDS011;14572;43.120;1.178;2024-03-29T11:33:25;17.05;;;3.15;;
26391;SDS011;14572;43.120;1.178;2024-03-29T11:35:53;19.13;;;3.50;;
26391;SDS011;14572;43.120;1.178;2024-03-29T11:38:20;16.02;;;3.05;;
26391;SDS011;14572;43.120;1.178;2024-03-29T11:41:00;15.77;;;3.20;;
26391;SDS011;14572;43.120;1.178;2024-03-29T11:43:28;25.73;;;3.13;;
26391;SDS011;14572;43.120;1.178;2024-03-29T11:45:57;18.38;;;3.28;;
26391;SDS011;14572;43.120;1.178;2024-03-29T11:48:26;18.05;;;2.92;;
26391;SDS011;14572;43.120;1.178;2024-03-29T11:50:54;15.30;;;3.28;;
26391;SDS011;14572;43.120;1.178;2024-03-29T11:53:21;20.02;;;3.53;;
26391;SDS011;14572;43.120;1.178;2024-03-29T11:55:48;20.50;;;3.33;;
26391;SDS011;14572;43.120;1.178;2024-03-29T11:58:18;19.13;;;3.33;;
26391;SDS011;14572;43.120;1.178;2024-03-29T12:00:46;23.58;;;3.70;;
26391;SDS011;14572;43.120;1.178;2024-03-29T12:03:15;14.55;;;3.28;;
26391;SDS011;14572;43.120;1.178;2024-03-29T12:05:43;18.85;;;3.22;;
26391;SDS011;14572;43.120;1.178;2024-03-29T12:08:10;21.42;;;3.13;;
26391;SDS011;14572;43.120;1.178;2024-03-29T12:10:37;19.90;;;3.05;;
26391;SDS011;14572;43.120;1.178;2024-03-29T12:13:04;17.45;;;3.67;;
26391;SDS011;14572;43.120;1.178;2024-03-29T12:15:32;17.75;;;3.63;;
26391;SDS011;14572;43.120;1.178;2024-03-29T12:18:00;17.20;;;3.63;;
26391;SDS011;14572;43.120;1.178;2024-03-29T12:20:31;23.00;;;3.58;;
26391;SDS011;14572;43.120;1.178;2024-03-29T12:22:58;17.23;;;3.10;;
26391;SDS011;14572;43.120;1.178;2024-03-29T12:25:26;17.75;;;3.28;;
26391;SDS011;14572;43.120;1.178;2024-03-29T12:27:54;11.50;;;2.67;;
26391;SDS011;14572;43.120;1.178;2024-03-29T12:30:21;14.30;;;2.75;;
26391;SDS011;14572;43.120;1.178;2024-03-29T12:32:48;22.15;;;3.65;;
26391;SDS011;14572;43.120;1.178;2024-03-29T12:35:15;14.52;;;2.40;;
26391;SDS011;14572;43.120;1.178;2024-03-29T12:37:50;17.23;;;3.20;;
26391;SDS011;14572;43.120;1.178;2024-03-29T12:40:18;13.65;;;2.42;;
26391;SDS011;14572;43.120;1.178;2024-03-29T12:42:48;20.90;;;2.50;;
26391;SDS011;14572;43.120;1.178;2024-03-29T12:45:15;23.67;;;3.65;;
26391;SDS011;14572;43.120;1.178;2024-03-29T12:47:44;14.75;;;2.65;;
26391;SDS011;14572;43.120;1.178;2024-03-29T12:50:12;14.50;;;3.30;;
26391;SDS011;14572;43.120;1.178;2024-03-29T12:52:40;19.73;;;3.28;;
26391;SDS011;14572;43.120;1.178;2024-03-29T12:55:09;15.43;;;2.60;;
26391;SDS011;14572;43.120;1.178;2024-03-29T12:57:37;16.83;;;3.53;;
26391;SDS011;14572;43.120;1.178;2024-03-29T13:00:07;17.73;;;3.22;;
26391;SDS011;14572;43.120;1.178;2024-03-29T13:02:35;16.63;;;3.28;;
26391;SDS011;14572;43.120;1.178;2024-03-29T13:05:02;20.33;;;2.90;;
26391;SDS011;14572;43.120;1.178;2024-03-29T13:07:30;17.38;;;3.45;;
26391;SDS011;14572;43.120;1.178;2024-03-29T13:09:58;17.08;;;3.08;;
26391;SDS011;14572;43.120;1.178;2024-03-29T13:12:29;21.23;;;3.15;;
26391;SDS011;14572;43.120;1.178;2024-03-29T13:15:01;16.92;;;3.17;;
26391;SDS011;14572;43.120;1.178;2024-03-29T13:17:29;20.77;;;4.18;;
26391;SDS011;14572;43.120;1.178;2024-03-29T13:19:56;20.73;;;3.25;;
26391;SDS011;14572;43.120;1.178;2024-03-29T13:22:24;18.77;;;3.40;;
26391;SDS011;14572;43.120;1.178;2024-03-29T13:24:52;17.92;;;3.20;;
26391;SDS011;14572;43.120;1.178;2024-03-29T13:27:19;22.35;;;3.78;;
26391;SDS011;14572;43.120;1.178;2024-03-29T13:29:47;16.15;;;3.72;;
26391;SDS011;14572;43.120;1.178;2024-03-29T13:32:14;16.65;;;3.60;;
26391;SDS011;14572;43.120;1.178;2024-03-29T13:34:41;18.48;;;3.58;;
26391;SDS011;14572;43.120;1.178;2024-03-29T13:37:08;26.65;;;3.95;;
26391;SDS011;14572;43.120;1.178;2024-03-29T13:39:36;20.42;;;3.45;;
26391;SDS011;14572;43.120;1.178;2024-03-29T13:42:03;23.30;;;3.38;;
26391;SDS011;14572;43.120;1.178;2024-03-29T13:44:30;22.83;;;3.60;;
26391;SDS011;14572;43.120;1.178;2024-03-29T13:47:00;26.70;;;3.83;;
26391;SDS011;14572;43.120;1.178;2024-03-29T13:49:29;24.05;;;3.67;;
26391;SDS011;14572;43.120;1.178;2024-03-29T13:51:57;20.02;;;3.33;;
26391;SDS011;14572;43.120;1.178;2024-03-29T13:54:24;18.65;;;3.30;;
26391;SDS011;14572;43.120;1.178;2024-03-29T13:56:51;21.15;;;3.17;;
26391;SDS011;14572;43.120;1.178;2024-03-29T13:59:19;18.73;;;3.22;;
26391;SDS011;14572;43.120;1.178;2024-03-29T14:01:46;25.77;;;3.85;;
26391;SDS011;14572;43.120;1.178;2024-03-29T14:04:15;24.70;;;3.47;;
26391;SDS011;14572;43.120;1.178;2024-03-29T14:06:42;17.98;;;3.35;;
26391;SDS011;14572;43.120;1.178;2024-03-29T14:09:09;17.00;;;3.00;;
26391;SDS011;14572;43.120;1.178;2024-03-29T14:11:37;17.77;;;3.25;;
26391;SDS011;14572;43.120;1.178;2024-03-29T14:14:04;16.65;;;3.50;;
26391;SDS011;14572;43.120;1.178;2024-03-29T14:16:33;27.77;;;3.45;;
26391;SDS011;14572;43.120;1.178;2024-03-29T14:19:00;23.08;;;3.38;;
26391;SDS011;14572;43.120;1.178;2024-03-29T14:21:29;17.75;;;3.25;;
26391;SDS011;14572;43.120;1.178;2024-03-29T14:23:57;18.80;;;3.28;;
26391;SDS011;14572;43.120;1.178;2024-03-29T14:26:24;18.80;;;2.90;;
26391;SDS011;14572;43.120;1.178;2024-03-29T14:28:51;18.25;;;3.05;;
26391;SDS011;14572;43.120;1.178;2024-03-29T14:31:18;16.23;;;3.10;;
26391;SDS011;14572;43.120;1.178;2024-03-29T14:33:46;19.10;;;3.97;;
26391;SDS011;14572;43.120;1.178;2024-03-29T14:36:13;10.70;;;2.05;;
26391;SDS011;14572;43.120;1.178;2024-03-29T14:38:41;3.78;;;1.33;;
26391;SDS011;14572;43.120;1.178;2024-03-29T14:41:08;5.20;;;0.90;;
26391;SDS011;14572;43.120;1.178;2024-03-29T14:43:35;6.32;;;1.17;;
26391;SDS011;14572;43.120;1.178;2024-03-29T14:46:02;6.22;;;0.90;;
26391;SDS011;14572;43.120;1.178;2024-03-29T14:48:30;1.58;;;0.60;;
26391;SDS011;14572;43.120;1.178;2024-03-29T14:50:57;1.98;;;0.68;;
26391;SDS011;14572;43.120;1.178;2024-03-29T14:53:24;1.65;;;0.47;;
26391;SDS011;14572;43.120;1.178;2024-03-29T14:55:52;1.60;;;0.70;;
26391;SDS011;14572;43.120;1.178;2024-03-29T14:58:19;1.15;;;0.50;;
26391;SDS011;14572;43.120;1.178;2024-03-29T15:00:46;3.08;;;0.38;;
26391;SDS011;14572;43.120;1.178;2024-03-29T15:03:15;1.17;;;0.57;;
26391;SDS011;14572;43.120;1.178;2024-03-29T15:05:42;2.42;;;0.50;;
26391;SDS011;14572;43.120;1.178;2024-03-29T15:08:09;1.98;;;0.50;;